sensor_id;sensor_type;location;lat;lon;timestamp;temperature;humidity
2030;DHT22;1020;48.854;8.830;2023-07-31T00:01:07;15.70;99.90
2030;DHT22;1020;48.854;8.830;2023-07-31T00:03:34;15.70;99.90
2030;DHT22;1020;48.854;8.830;2023-07-31T00:06:01;15.70;1.00
2030;DHT22;1020;48.854;8.830;2023-07-31T00:08:27;15.60;99.90
2030;DHT22;1020;48.854;8.830;2023-07-31T00:10:54;15.50;99.90
2030;DHT22;1020;48.854;8.830;2023-07-31T00:13:21;15.40;1.00
2030;DHT22;1020;48.854;8.830;2023-07-31T00:15:49;15.30;1.00
2030;DHT22;1020;48.854;8.830;2023-07-31T00:18:16;15.20;99.90
2030;DHT22;1020;48.854;8.830;2023-07-31T00:20:42;15.10;99.90
2030;DHT22;1020;48.854;8.830;2023-07-31T00:23:09;15.10;1.00
2030;DHT22;1020;48.854;8.830;2023-07-31T00:25:36;15.00;1.00
2030;DHT22;1020;48.854;8.830;2023-07-31T00:28:03;14.90;1.00
2030;DHT22;1020;48.854;8.830;2023-07-31T00:30:30;14.80;1.00
2030;DHT22;1020;48.854;8.830;2023-07-31T00:32:58;14.70;1.00
2030;DHT22;1020;48.854;8.830;2023-07-31T00:35:25;14.70;1.00
2030;DHT22;1020;48.854;8.830;2023-07-31T00:37:51;14.70;1.00
2030;DHT22;1020;48.854;8.830;2023-07-31T00:40:18;14.70;1.00
2030;DHT22;1020;48.854;8.830;2023-07-31T00:42:45;14.70;1.00
2030;DHT22;1020;48.854;8.830;2023-07-31T00:45:11;14.70;1.00
2030;DHT22;1020;48.854;8.830;2023-07-31T00:47:38;14.70;1.00
2030;DHT22;1020;48.854;8.830;2023-07-31T00:50:08;14.80;1.00
2030;DHT22;1020;48.854;8.830;2023-07-31T00:52:35;14.70;1.00
2030;DHT22;1020;48.854;8.830;2023-07-31T00:55:02;14.60;1.00
2030;DHT22;1020;48.854;8.830;2023-07-31T00:57:30;14.60;1.00
2030;DHT22;1020;48.854;8.830;2023-07-31T00:59:58;14.60;1.00
2030;DHT22;1020;48.854;8.830;2023-07-31T01:02:25;14.60;1.00
2030;DHT22;1020;48.854;8.830;2023-07-31T01:04:52;14.70;1.00
2030;DHT22;1020;48.854;8.830;2023-07-31T01:07:24;14.80;1.00
2030;DHT22;1020;48.854;8.830;2023-07-31T01:10:00;14.80;1.00
2030;DHT22;1020;48.854;8.830;2023-07-31T01:12:30;14.80;1.00
2030;DHT22;1020;48.854;8.830;2023-07-31T01:15:05;14.80;1.00
2030;DHT22;1020;48.854;8.830;2023-07-31T01:17:32;14.80;1.00
2030;DHT22;1020;48.854;8.830;2023-07-31T01:20:02;14.80;1.00
2030;DHT22;1020;48.854;8.830;2023-07-31T01:25:51;14.70;1.00
2030;DHT22;1020;48.854;8.830;2023-07-31T01:28:24;14.60;1.00
2030;DHT22;1020;48.854;8.830;2023-07-31T01:33:27;14.40;1.00
2030;DHT22;1020;48.854;8.830;2023-07-31T01:35:56;14.30;1.00
2030;DHT22;1020;48.854;8.830;2023-07-31T01:38:23;14.30;1.00
2030;DHT22;1020;48.854;8.830;2023-07-31T01:40:53;14.30;1.00
2030;DHT22;1020;48.854;8.830;2023-07-31T01:43:20;14.30;1.00
2030;DHT22;1020;48.854;8.830;2023-07-31T01:45:46;14.30;1.00
2030;DHT22;1020;48.854;8.830;2023-07-31T01:48:13;14.20;1.00
2030;DHT22;1020;48.854;8.830;2023-07-31T01:50:40;14.20;1.00
2030;DHT22;1020;48.854;8.830;2023-07-31T01:53:07;14.20;1.00
2030;DHT22;1020;48.854;8.830;2023-07-31T01:55:33;14.10;1.00
2030;DHT22;1020;48.854;8.830;2023-07-31T01:58:02;14.00;1.00
2030;DHT22;1020;48.854;8.830;2023-07-31T02:00:28;14.00;1.00
2030;DHT22;1020;48.854;8.830;2023-07-31T02:02:55;14.00;1.00
2030;DHT22;1020;48.854;8.830;2023-07-31T02:05:22;14.00;1.00
2030;DHT22;1020;48.854;8.830;2023-07-31T02:07:49;14.00;2.50
2030;DHT22;1020;48.854;8.830;2023-07-31T02:10:15;13.90;9.90
2030;DHT22;1020;48.854;8.830;2023-07-31T02:12:42;13.90;15.40
2030;DHT22;1020;48.854;8.830;2023-07-31T02:15:10;13.90;23.30
2030;DHT22;1020;48.854;8.830;2023-07-31T02:17:37;13.80;28.50
2030;DHT22;1020;48.854;8.830;2023-07-31T02:20:05;13.80;27.20
2030;DHT22;1020;48.854;8.830;2023-07-31T02:22:32;13.80;30.00
2030;DHT22;1020;48.854;8.830;2023-07-31T02:24:59;13.80;27.90
2030;DHT22;1020;48.854;8.830;2023-07-31T02:27:25;13.80;19.80
2030;DHT22;1020;48.854;8.830;2023-07-31T02:29:53;13.80;21.40
2030;DHT22;1020;48.854;8.830;2023-07-31T02:32:21;13.80;23.40
2030;DHT22;1020;48.854;8.830;2023-07-31T02:34:48;13.70;26.70
2030;DHT22;1020;48.854;8.830;2023-07-31T02:37:14;13.70;31.70
2030;DHT22;1020;48.854;8.830;2023-07-31T02:39:41;13.70;39.50
2030;DHT22;1020;48.854;8.830;2023-07-31T02:42:08;13.70;44.70
2030;DHT22;1020;48.854;8.830;2023-07-31T02:44:35;13.70;47.20
2030;DHT22;1020;48.854;8.830;2023-07-31T02:47:01;13.70;39.90
2030;DHT22;1020;48.854;8.830;2023-07-31T02:49:30;13.70;34.00
2030;DHT22;1020;48.854;8.830;2023-07-31T02:51:57;13.60;38.50
2030;DHT22;1020;48.854;8.830;2023-07-31T02:54:24;13.60;40.60
2030;DHT22;1020;48.854;8.830;2023-07-31T02:56:50;13.70;36.10
2030;DHT22;1020;48.854;8.830;2023-07-31T02:59:17;13.70;32.60
2030;DHT22;1020;48.854;8.830;2023-07-31T03:01:44;13.70;26.80
2030;DHT22;1020;48.854;8.830;2023-07-31T03:04:11;13.70;24.70
2030;DHT22;1020;48.854;8.830;2023-07-31T03:06:39;13.70;23.80
2030;DHT22;1020;48.854;8.830;2023-07-31T03:09:05;13.80;24.60
2030;DHT22;1020;48.854;8.830;2023-07-31T03:11:32;13.80;22.50
2030;DHT22;1020;48.854;8.830;2023-07-31T03:13:59;13.80;23.80
2030;DHT22;1020;48.854;8.830;2023-07-31T03:16:26;13.80;22.30
2030;DHT22;1020;48.854;8.830;2023-07-31T03:18:52;13.80;26.60
2030;DHT22;1020;48.854;8.830;2023-07-31T03:21:19;13.80;25.80
2030;DHT22;1020;48.854;8.830;2023-07-31T03:23:47;13.80;24.00
2030;DHT22;1020;48.854;8.830;2023-07-31T03:26:14;13.70;29.40
2030;DHT22;1020;48.854;8.830;2023-07-31T03:28:41;13.70;30.00
2030;DHT22;1020;48.854;8.830;2023-07-31T03:31:08;13.70;30.00
2030;DHT22;1020;48.854;8.830;2023-07-31T03:33:35;13.70;31.80
2030;DHT22;1020;48.854;8.830;2023-07-31T03:36:01;13.70;38.80
2030;DHT22;1020;48.854;8.830;2023-07-31T03:38:28;13.80;33.40
2030;DHT22;1020;48.854;8.830;2023-07-31T03:40:56;13.70;28.70
2030;DHT22;1020;48.854;8.830;2023-07-31T03:43:24;13.80;25.70
2030;DHT22;1020;48.854;8.830;2023-07-31T03:45:51;13.80;22.00
2030;DHT22;1020;48.854;8.830;2023-07-31T03:48:18;13.80;19.90
2030;DHT22;1020;48.854;8.830;2023-07-31T03:50:44;13.90;14.30
2030;DHT22;1020;48.854;8.830;2023-07-31T03:53:11;13.90;11.30
2030;DHT22;1020;48.854;8.830;2023-07-31T03:55:38;13.90;3.20
2030;DHT22;1020;48.854;8.830;2023-07-31T03:58:06;14.00;1.00
2030;DHT22;1020;48.854;8.830;2023-07-31T04:00:33;14.00;1.00
2030;DHT22;1020;48.854;8.830;2023-07-31T04:03:00;14.00;1.00
2030;DHT22;1020;48.854;8.830;2023-07-31T04:05:27;14.10;1.00
2030;DHT22;1020;48.854;8.830;2023-07-31T04:07:53;14.10;1.00
2030;DHT22;1020;48.854;8.830;2023-07-31T04:10:20;14.10;1.00
2030;DHT22;1020;48.854;8.830;2023-07-31T04:12:47;14.10;1.00
2030;DHT22;1020;48.854;8.830;2023-07-31T04:15:15;14.10;1.00
2030;DHT22;1020;48.854;8.830;2023-07-31T04:17:42;14.10;1.00
2030;DHT22;1020;48.854;8.830;2023-07-31T04:20:10;14.20;1.00
2030;DHT22;1020;48.854;8.830;2023-07-31T04:22:36;14.20;1.00
2030;DHT22;1020;48.854;8.830;2023-07-31T04:25:03;14.20;1.00
2030;DHT22;1020;48.854;8.830;2023-07-31T04:27:30;14.20;1.00
2030;DHT22;1020;48.854;8.830;2023-07-31T04:29:57;14.30;1.00
2030;DHT22;1020;48.854;8.830;2023-07-31T04:32:25;14.30;1.00
2030;DHT22;1020;48.854;8.830;2023-07-31T04:34:52;14.40;1.00
2030;DHT22;1020;48.854;8.830;2023-07-31T04:37:19;14.40;1.00
2030;DHT22;1020;48.854;8.830;2023-07-31T04:39:45;14.40;1.00
2030;DHT22;1020;48.854;8.830;2023-07-31T04:42:12;14.40;1.00
2030;DHT22;1020;48.854;8.830;2023-07-31T04:44:39;14.50;1.00
2030;DHT22;1020;48.854;8.830;2023-07-31T04:47:06;14.40;1.00
2030;DHT22;1020;48.854;8.830;2023-07-31T04:49:34;14.40;1.00
2030;DHT22;1020;48.854;8.830;2023-07-31T04:52:01;14.50;1.00
2030;DHT22;1020;48.854;8.830;2023-07-31T04:54:27;14.40;1.00
2030;DHT22;1020;48.854;8.830;2023-07-31T04:56:54;14.40;1.00
2030;DHT22;1020;48.854;8.830;2023-07-31T04:59:21;14.40;1.00
2030;DHT22;1020;48.854;8.830;2023-07-31T05:01:48;14.40;1.00
2030;DHT22;1020;48.854;8.830;2023-07-31T05:04:15;14.40;1.00
2030;DHT22;1020;48.854;8.830;2023-07-31T05:06:43;14.40;1.00
2030;DHT22;1020;48.854;8.830;2023-07-31T05:09:10;14.40;1.00
2030;DHT22;1020;48.854;8.830;2023-07-31T05:11:37;14.40;1.00
2030;DHT22;1020;48.854;8.830;2023-07-31T05:14:05;14.40;1.00
2030;DHT22;1020;48.854;8.830;2023-07-31T05:16:33;14.50;1.00
2030;DHT22;1020;48.854;8.830;2023-07-31T05:18:59;17.10;1.00
2030;DHT22;1020;48.854;8.830;2023-07-31T05:21:26;14.40;1.00
2030;DHT22;1020;48.854;8.830;2023-07-31T05:23:54;14.50;1.00
2030;DHT22;1020;48.854;8.830;2023-07-31T05:26:21;14.50;1.00
2030;DHT22;1020;48.854;8.830;2023-07-31T05:28:48;14.60;1.00
2030;DHT22;1020;48.854;8.830;2023-07-31T05:31:14;14.60;1.00
2030;DHT22;1020;48.854;8.830;2023-07-31T05:33:41;14.70;1.00
2030;DHT22;1020;48.854;8.830;2023-07-31T05:36:21;14.80;1.00
2030;DHT22;1020;48.854;8.830;2023-07-31T05:38:47;14.80;1.00
2030;DHT22;1020;48.854;8.830;2023-07-31T05:41:14;14.80;1.00
2030;DHT22;1020;48.854;8.830;2023-07-31T05:43:41;14.90;1.00
2030;DHT22;1020;48.854;8.830;2023-07-31T05:46:08;14.90;1.00
2030;DHT22;1020;48.854;8.830;2023-07-31T05:48:37;15.10;1.00
2030;DHT22;1020;48.854;8.830;2023-07-31T05:51:04;15.10;1.00
2030;DHT22;1020;48.854;8.830;2023-07-31T05:53:32;15.20;1.00
2030;DHT22;1020;48.854;8.830;2023-07-31T05:55:58;15.30;99.90
2030;DHT22;1020;48.854;8.830;2023-07-31T05:58:25;15.50;99.90
2030;DHT22;1020;48.854;8.830;2023-07-31T06:00:52;15.50;99.90
2030;DHT22;1020;48.854;8.830;2023-07-31T06:03:19;15.60;99.90
2030;DHT22;1020;48.854;8.830;2023-07-31T06:05:45;15.70;99.90
2030;DHT22;1020;48.854;8.830;2023-07-31T06:08:12;15.90;99.90
2030;DHT22;1020;48.854;8.830;2023-07-31T06:10:40;16.20;81.60
2030;DHT22;1020;48.854;8.830;2023-07-31T06:13:07;16.20;1.00
2030;DHT22;1020;48.854;8.830;2023-07-31T06:15:34;16.30;1.00
2030;DHT22;1020;48.854;8.830;2023-07-31T06:18:01;16.50;99.90
2030;DHT22;1020;48.854;8.830;2023-07-31T06:20:28;16.70;99.90
2030;DHT22;1020;48.854;8.830;2023-07-31T06:22:55;16.80;99.90
2030;DHT22;1020;48.854;8.830;2023-07-31T06:25:22;16.90;99.90
2030;DHT22;1020;48.854;8.830;2023-07-31T06:27:50;16.80;7.80
2030;DHT22;1020;48.854;8.830;2023-07-31T06:30:17;16.90;1.00
2030;DHT22;1020;48.854;8.830;2023-07-31T06:32:44;17.10;99.90
2030;DHT22;1020;48.854;8.830;2023-07-31T06:35:10;17.20;99.90
2030;DHT22;1020;48.854;8.830;2023-07-31T06:37:37;17.30;99.90
2030;DHT22;1020;48.854;8.830;2023-07-31T06:40:06;17.30;1.00
2030;DHT22;1020;48.854;8.830;2023-07-31T06:42:34;17.30;1.00
2030;DHT22;1020;48.854;8.830;2023-07-31T06:45:03;17.10;1.00
2030;DHT22;1020;48.854;8.830;2023-07-31T06:47:30;17.20;1.00
2030;DHT22;1020;48.854;8.830;2023-07-31T06:49:57;17.20;1.00
2030;DHT22;1020;48.854;8.830;2023-07-31T06:52:24;17.30;61.10
2030;DHT22;1020;48.854;8.830;2023-07-31T06:55:01;17.30;1.00
2030;DHT22;1020;48.854;8.830;2023-07-31T06:57:29;17.40;1.00
2030;DHT22;1020;48.854;8.830;2023-07-31T06:59:55;17.60;1.00
2030;DHT22;1020;48.854;8.830;2023-07-31T07:02:23;17.70;1.00
2030;DHT22;1020;48.854;8.830;2023-07-31T07:04:50;17.90;1.00
2030;DHT22;1020;48.854;8.830;2023-07-31T07:07:18;17.80;99.90
2030;DHT22;1020;48.854;8.830;2023-07-31T07:09:44;17.80;99.90
2030;DHT22;1020;48.854;8.830;2023-07-31T07:12:11;17.80;99.90
2030;DHT22;1020;48.854;8.830;2023-07-31T07:14:38;17.80;99.90
2030;DHT22;1020;48.854;8.830;2023-07-31T07:17:05;17.70;99.90
2030;DHT22;1020;48.854;8.830;2023-07-31T07:19:33;17.70;99.90
2030;DHT22;1020;48.854;8.830;2023-07-31T07:22:00;17.50;99.90
2030;DHT22;1020;48.854;8.830;2023-07-31T07:24:27;17.50;99.90
2030;DHT22;1020;48.854;8.830;2023-07-31T07:26:54;17.40;99.90
2030;DHT22;1020;48.854;8.830;2023-07-31T07:29:21;17.50;99.90
2030;DHT22;1020;48.854;8.830;2023-07-31T07:31:48;17.50;99.90
2030;DHT22;1020;48.854;8.830;2023-07-31T07:34:14;17.50;99.90
2030;DHT22;1020;48.854;8.830;2023-07-31T07:36:43;17.60;99.90
2030;DHT22;1020;48.854;8.830;2023-07-31T07:39:10;17.60;99.90
2030;DHT22;1020;48.854;8.830;2023-07-31T07:41:37;17.70;99.90
2030;DHT22;1020;48.854;8.830;2023-07-31T07:44:04;17.90;99.90
2030;DHT22;1020;48.854;8.830;2023-07-31T07:46:31;17.80;99.90
2030;DHT22;1020;48.854;8.830;2023-07-31T07:48:58;17.80;99.90
2030;DHT22;1020;48.854;8.830;2023-07-31T07:51:25;17.80;99.90
2030;DHT22;1020;48.854;8.830;2023-07-31T07:53:53;17.70;99.90
2030;DHT22;1020;48.854;8.830;2023-07-31T07:56:20;17.70;99.90
2030;DHT22;1020;48.854;8.830;2023-07-31T07:58:48;17.90;99.90
2030;DHT22;1020;48.854;8.830;2023-07-31T08:01:15;18.00;99.90
2030;DHT22;1020;48.854;8.830;2023-07-31T08:03:42;18.20;99.90
2030;DHT22;1020;48.854;8.830;2023-07-31T08:06:09;18.20;99.90
2030;DHT22;1020;48.854;8.830;2023-07-31T08:08:36;18.00;99.90
2030;DHT22;1020;48.854;8.830;2023-07-31T08:11:05;17.80;99.90
2030;DHT22;1020;48.854;8.830;2023-07-31T08:13:32;17.90;99.90
2030;DHT22;1020;48.854;8.830;2023-07-31T08:15:59;18.00;99.90
2030;DHT22;1020;48.854;8.830;2023-07-31T08:18:25;18.10;99.90
2030;DHT22;1020;48.854;8.830;2023-07-31T08:20:52;18.10;99.90
2030;DHT22;1020;48.854;8.830;2023-07-31T08:23:19;18.30;99.90
2030;DHT22;1020;48.854;8.830;2023-07-31T08:25:46;18.20;99.90
2030;DHT22;1020;48.854;8.830;2023-07-31T08:28:16;18.20;99.90
2030;DHT22;1020;48.854;8.830;2023-07-31T08:30:43;18.10;99.90
2030;DHT22;1020;48.854;8.830;2023-07-31T08:33:10;18.20;99.90
2030;DHT22;1020;48.854;8.830;2023-07-31T08:35:37;18.30;99.90
2030;DHT22;1020;48.854;8.830;2023-07-31T08:38:03;18.30;99.90
2030;DHT22;1020;48.854;8.830;2023-07-31T08:40:36;18.40;99.90
2030;DHT22;1020;48.854;8.830;2023-07-31T08:43:03;18.30;99.90
2030;DHT22;1020;48.854;8.830;2023-07-31T08:45:32;18.20;99.90
2030;DHT22;1020;48.854;8.830;2023-07-31T08:47:59;18.40;99.90
2030;DHT22;1020;48.854;8.830;2023-07-31T08:50:26;18.50;99.90
2030;DHT22;1020;48.854;8.830;2023-07-31T08:52:53;18.60;99.90
2030;DHT22;1020;48.854;8.830;2023-07-31T08:55:20;18.60;99.90
2030;DHT22;1020;48.854;8.830;2023-07-31T08:57:51;18.60;99.90
2030;DHT22;1020;48.854;8.830;2023-07-31T09:00:18;18.60;99.90
2030;DHT22;1020;48.854;8.830;2023-07-31T09:02:54;18.70;99.90
2030;DHT22;1020;48.854;8.830;2023-07-31T09:05:23;19.00;99.90
2030;DHT22;1020;48.854;8.830;2023-07-31T09:07:50;19.40;99.90
2030;DHT22;1020;48.854;8.830;2023-07-31T09:10:18;19.40;20.20
2030;DHT22;1020;48.854;8.830;2023-07-31T09:12:44;19.50;13.60
2030;DHT22;1020;48.854;8.830;2023-07-31T09:15:12;19.60;44.10
2030;DHT22;1020;48.854;8.830;2023-07-31T09:17:39;19.60;1.20
2030;DHT22;1020;48.854;8.830;2023-07-31T09:20:15;19.90;1.00
2030;DHT22;1020;48.854;8.830;2023-07-31T09:22:42;20.30;1.00
2030;DHT22;1020;48.854;8.830;2023-07-31T09:25:16;20.40;1.00
2030;DHT22;1020;48.854;8.830;2023-07-31T09:27:47;20.30;1.00
2030;DHT22;1020;48.854;8.830;2023-07-31T09:30:14;20.50;1.00
2030;DHT22;1020;48.854;8.830;2023-07-31T09:32:42;20.60;1.00
2030;DHT22;1020;48.854;8.830;2023-07-31T09:35:29;21.00;1.00
2030;DHT22;1020;48.854;8.830;2023-07-31T09:37:58;20.90;1.00
2030;DHT22;1020;48.854;8.830;2023-07-31T09:40:26;21.00;1.00
2030;DHT22;1020;48.854;8.830;2023-07-31T09:42:54;21.40;1.00
2030;DHT22;1020;48.854;8.830;2023-07-31T09:45:22;21.60;1.00
2030;DHT22;1020;48.854;8.830;2023-07-31T09:47:49;21.80;1.00
2030;DHT22;1020;48.854;8.830;2023-07-31T09:50:16;22.10;1.00
2030;DHT22;1020;48.854;8.830;2023-07-31T09:52:44;22.80;1.00
2030;DHT22;1020;48.854;8.830;2023-07-31T09:55:11;22.50;1.00
2030;DHT22;1020;48.854;8.830;2023-07-31T09:57:40;22.60;1.00
2030;DHT22;1020;48.854;8.830;2023-07-31T10:00:08;22.50;1.00
2030;DHT22;1020;48.854;8.830;2023-07-31T10:02:36;22.40;1.00
2030;DHT22;1020;48.854;8.830;2023-07-31T10:05:04;22.20;1.00
2030;DHT22;1020;48.854;8.830;2023-07-31T10:07:36;21.30;1.00
2030;DHT22;1020;48.854;8.830;2023-07-31T10:10:07;23.40;1.00
2030;DHT22;1020;48.854;8.830;2023-07-31T10:12:34;22.60;1.00
2030;DHT22;1020;48.854;8.830;2023-07-31T10:15:01;22.70;99.90
2030;DHT22;1020;48.854;8.830;2023-07-31T10:17:29;22.40;99.90
2030;DHT22;1020;48.854;8.830;2023-07-31T10:19:58;22.70;99.90
2030;DHT22;1020;48.854;8.830;2023-07-31T10:22:27;22.50;99.90
2030;DHT22;1020;48.854;8.830;2023-07-31T10:24:57;22.50;99.90
2030;DHT22;1020;48.854;8.830;2023-07-31T10:27:26;22.90;99.90
2030;DHT22;1020;48.854;8.830;2023-07-31T10:29:55;23.00;99.90
2030;DHT22;1020;48.854;8.830;2023-07-31T10:32:22;24.20;99.90
2030;DHT22;1020;48.854;8.830;2023-07-31T10:34:52;24.30;99.90
2030;DHT22;1020;48.854;8.830;2023-07-31T10:37:23;24.40;99.90
2030;DHT22;1020;48.854;8.830;2023-07-31T10:39:59;23.70;99.90
2030;DHT22;1020;48.854;8.830;2023-07-31T10:42:32;24.50;99.90
2030;DHT22;1020;48.854;8.830;2023-07-31T10:45:01;24.30;99.90
2030;DHT22;1020;48.854;8.830;2023-07-31T10:47:28;23.70;99.90
2030;DHT22;1020;48.854;8.830;2023-07-31T10:50:13;24.10;99.90
2030;DHT22;1020;48.854;8.830;2023-07-31T10:52:40;24.20;99.90
2030;DHT22;1020;48.854;8.830;2023-07-31T10:55:14;24.00;99.90
2030;DHT22;1020;48.854;8.830;2023-07-31T10:57:47;24.00;99.90
2030;DHT22;1020;48.854;8.830;2023-07-31T11:00:19;24.20;99.90
2030;DHT22;1020;48.854;8.830;2023-07-31T11:02:56;24.60;99.90
2030;DHT22;1020;48.854;8.830;2023-07-31T11:05:41;24.90;99.90
2030;DHT22;1020;48.854;8.830;2023-07-31T11:08:11;24.60;99.90
2030;DHT22;1020;48.854;8.830;2023-07-31T11:10:38;24.40;99.90
2030;DHT22;1020;48.854;8.830;2023-07-31T11:13:07;24.00;99.90
2030;DHT22;1020;48.854;8.830;2023-07-31T11:15:34;23.90;99.90
2030;DHT22;1020;48.854;8.830;2023-07-31T11:18:01;23.70;99.90
2030;DHT22;1020;48.854;8.830;2023-07-31T11:20:30;23.60;99.90
2030;DHT22;1020;48.854;8.830;2023-07-31T11:22:59;23.40;99.90
2030;DHT22;1020;48.854;8.830;2023-07-31T11:25:26;23.20;99.90
2030;DHT22;1020;48.854;8.830;2023-07-31T11:27:53;22.90;99.90
2030;DHT22;1020;48.854;8.830;2023-07-31T11:30:23;23.10;99.90
2030;DHT22;1020;48.854;8.830;2023-07-31T11:32:50;22.50;99.90
2030;DHT22;1020;48.854;8.830;2023-07-31T11:35:17;22.30;99.90
2030;DHT22;1020;48.854;8.830;2023-07-31T11:37:44;22.10;99.90
2030;DHT22;1020;48.854;8.830;2023-07-31T11:40:12;22.10;99.90
2030;DHT22;1020;48.854;8.830;2023-07-31T11:42:38;22.30;99.90
2030;DHT22;1020;48.854;8.830;2023-07-31T11:45:06;22.80;99.90
2030;DHT22;1020;48.854;8.830;2023-07-31T11:47:36;22.40;99.90
2030;DHT22;1020;48.854;8.830;2023-07-31T11:50:05;22.20;99.90
2030;DHT22;1020;48.854;8.830;2023-07-31T11:52:36;22.40;99.90
2030;DHT22;1020;48.854;8.830;2023-07-31T11:55:05;25.10;99.90
2030;DHT22;1020;48.854;8.830;2023-07-31T11:57:35;22.80;99.90
2030;DHT22;1020;48.854;8.830;2023-07-31T12:00:03;22.70;99.90
2030;DHT22;1020;48.854;8.830;2023-07-31T12:02:31;22.50;99.90
2030;DHT22;1020;48.854;8.830;2023-07-31T12:04:59;22.40;99.90
2030;DHT22;1020;48.854;8.830;2023-07-31T12:07:26;20.20;99.90
2030;DHT22;1020;48.854;8.830;2023-07-31T12:09:53;22.40;99.90
2030;DHT22;1020;48.854;8.830;2023-07-31T12:12:20;22.10;99.90
2030;DHT22;1020;48.854;8.830;2023-07-31T12:14:48;22.30;99.90
2030;DHT22;1020;48.854;8.830;2023-07-31T12:17:17;22.60;99.90
2030;DHT22;1020;48.854;8.830;2023-07-31T12:19:45;22.90;99.90
2030;DHT22;1020;48.854;8.830;2023-07-31T12:22:14;22.50;99.90
2030;DHT22;1020;48.854;8.830;2023-07-31T12:24:43;22.30;99.90
2030;DHT22;1020;48.854;8.830;2023-07-31T12:27:11;22.30;99.90
2030;DHT22;1020;48.854;8.830;2023-07-31T12:29:38;22.60;99.90
2030;DHT22;1020;48.854;8.830;2023-07-31T12:32:19;22.60;99.90
2030;DHT22;1020;48.854;8.830;2023-07-31T12:34:46;22.40;99.90
2030;DHT22;1020;48.854;8.830;2023-07-31T12:37:14;22.80;99.90
2030;DHT22;1020;48.854;8.830;2023-07-31T12:39:41;22.80;99.90
2030;DHT22;1020;48.854;8.830;2023-07-31T12:42:08;22.90;99.90
2030;DHT22;1020;48.854;8.830;2023-07-31T12:44:34;23.00;99.90
2030;DHT22;1020;48.854;8.830;2023-07-31T12:47:01;22.70;99.90
2030;DHT22;1020;48.854;8.830;2023-07-31T12:49:29;22.40;99.90
2030;DHT22;1020;48.854;8.830;2023-07-31T12:51:56;22.30;99.90
2030;DHT22;1020;48.854;8.830;2023-07-31T12:54:24;22.40;99.90
2030;DHT22;1020;48.854;8.830;2023-07-31T12:56:51;22.60;99.90
2030;DHT22;1020;48.854;8.830;2023-07-31T12:59:17;22.70;99.90
2030;DHT22;1020;48.854;8.830;2023-07-31T13:01:44;22.20;99.90
2030;DHT22;1020;48.854;8.830;2023-07-31T13:04:11;22.50;99.90
2030;DHT22;1020;48.854;8.830;2023-07-31T13:06:38;22.40;99.90
2030;DHT22;1020;48.854;8.830;2023-07-31T13:09:04;22.50;99.90
2030;DHT22;1020;48.854;8.830;2023-07-31T13:11:33;22.80;99.90
2030;DHT22;1020;48.854;8.830;2023-07-31T13:13:59;22.90;99.90
2030;DHT22;1020;48.854;8.830;2023-07-31T13:16:26;23.20;99.90
2030;DHT22;1020;48.854;8.830;2023-07-31T13:18:53;23.00;99.90
2030;DHT22;1020;48.854;8.830;2023-07-31T13:21:20;24.70;99.90
2030;DHT22;1020;48.854;8.830;2023-07-31T13:23:47;22.90;99.90
2030;DHT22;1020;48.854;8.830;2023-07-31T13:26:14;22.90;99.90
2030;DHT22;1020;48.854;8.830;2023-07-31T13:28:42;23.00;99.90
2030;DHT22;1020;48.854;8.830;2023-07-31T13:31:09;23.20;99.90
2030;DHT22;1020;48.854;8.830;2023-07-31T13:33:37;23.10;99.90
2030;DHT22;1020;48.854;8.830;2023-07-31T13:36:04;23.30;99.90
2030;DHT22;1020;48.854;8.830;2023-07-31T13:38:30;23.20;99.90
2030;DHT22;1020;48.854;8.830;2023-07-31T13:40:57;23.10;99.90
2030;DHT22;1020;48.854;8.830;2023-07-31T13:43:24;23.00;99.90
2030;DHT22;1020;48.854;8.830;2023-07-31T13:45:52;23.20;99.90
2030;DHT22;1020;48.854;8.830;2023-07-31T13:48:19;23.10;99.90
2030;DHT22;1020;48.854;8.830;2023-07-31T13:50:46;24.50;99.90
2030;DHT22;1020;48.854;8.830;2023-07-31T13:53:13;22.70;99.90
2030;DHT22;1020;48.854;8.830;2023-07-31T13:55:39;22.60;99.90
2030;DHT22;1020;48.854;8.830;2023-07-31T13:58:06;22.90;99.90
2030;DHT22;1020;48.854;8.830;2023-07-31T14:00:33;22.90;99.90
2030;DHT22;1020;48.854;8.830;2023-07-31T14:03:02;23.00;99.90
2030;DHT22;1020;48.854;8.830;2023-07-31T14:05:28;23.20;99.90
2030;DHT22;1020;48.854;8.830;2023-07-31T14:07:55;23.30;99.90
2030;DHT22;1020;48.854;8.830;2023-07-31T14:10:22;23.50;99.90
2030;DHT22;1020;48.854;8.830;2023-07-31T14:12:49;23.70;99.90
2030;DHT22;1020;48.854;8.830;2023-07-31T14:15:16;23.50;99.90
2030;DHT22;1020;48.854;8.830;2023-07-31T14:17:42;23.40;99.90
2030;DHT22;1020;48.854;8.830;2023-07-31T14:20:12;23.30;99.90
2030;DHT22;1020;48.854;8.830;2023-07-31T14:22:38;23.00;99.90
2030;DHT22;1020;48.854;8.830;2023-07-31T14:25:06;23.20;99.90
2030;DHT22;1020;48.854;8.830;2023-07-31T14:27:33;23.40;99.90
2030;DHT22;1020;48.854;8.830;2023-07-31T14:29:59;23.40;99.90
2030;DHT22;1020;48.854;8.830;2023-07-31T14:32:26;23.60;99.90
2030;DHT22;1020;48.854;8.830;2023-07-31T14:34:53;23.40;99.90
2030;DHT22;1020;48.854;8.830;2023-07-31T14:37:22;23.50;99.90
2030;DHT22;1020;48.854;8.830;2023-07-31T14:39:48;23.80;99.90
2030;DHT22;1020;48.854;8.830;2023-07-31T14:42:16;23.70;99.90
2030;DHT22;1020;48.854;8.830;2023-07-31T14:44:47;23.20;99.90
2030;DHT22;1020;48.854;8.830;2023-07-31T14:47:14;23.00;99.90
2030;DHT22;1020;48.854;8.830;2023-07-31T14:49:41;23.00;99.90
2030;DHT22;1020;48.854;8.830;2023-07-31T14:52:08;22.80;99.90
2030;DHT22;1020;48.854;8.830;2023-07-31T14:54:36;22.70;99.90
2030;DHT22;1020;48.854;8.830;2023-07-31T14:57:04;22.40;99.90
2030;DHT22;1020;48.854;8.830;2023-07-31T14:59:31;22.50;99.90
2030;DHT22;1020;48.854;8.830;2023-07-31T15:01:57;22.50;99.90
2030;DHT22;1020;48.854;8.830;2023-07-31T15:04:24;22.50;99.90
2030;DHT22;1020;48.854;8.830;2023-07-31T15:06:52;22.80;99.90
2030;DHT22;1020;48.854;8.830;2023-07-31T15:09:19;22.80;99.90
2030;DHT22;1020;48.854;8.830;2023-07-31T15:11:47;22.80;99.90
2030;DHT22;1020;48.854;8.830;2023-07-31T15:14:14;22.70;99.90
2030;DHT22;1020;48.854;8.830;2023-07-31T15:16:40;23.10;99.90
2030;DHT22;1020;48.854;8.830;2023-07-31T15:19:07;23.50;99.90
2030;DHT22;1020;48.854;8.830;2023-07-31T15:21:36;23.60;99.90
2030;DHT22;1020;48.854;8.830;2023-07-31T15:24:03;23.40;99.90
2030;DHT22;1020;48.854;8.830;2023-07-31T15:26:30;23.20;99.90
2030;DHT22;1020;48.854;8.830;2023-07-31T15:29:01;23.00;99.90
2030;DHT22;1020;48.854;8.830;2023-07-31T15:31:30;23.10;99.90
2030;DHT22;1020;48.854;8.830;2023-07-31T15:33:57;23.20;99.90
2030;DHT22;1020;48.854;8.830;2023-07-31T15:36:24;23.30;99.90
2030;DHT22;1020;48.854;8.830;2023-07-31T15:38:51;23.00;99.90
2030;DHT22;1020;48.854;8.830;2023-07-31T15:41:18;22.80;99.90
2030;DHT22;1020;48.854;8.830;2023-07-31T15:43:45;22.50;99.90
2030;DHT22;1020;48.854;8.830;2023-07-31T15:46:13;22.50;99.90
2030;DHT22;1020;48.854;8.830;2023-07-31T15:48:40;22.60;99.90
2030;DHT22;1020;48.854;8.830;2023-07-31T15:51:07;22.50;99.90
2030;DHT22;1020;48.854;8.830;2023-07-31T15:53:34;22.50;99.90
2030;DHT22;1020;48.854;8.830;2023-07-31T15:56:01;22.30;99.90
2030;DHT22;1020;48.854;8.830;2023-07-31T15:58:28;22.30;99.90
2030;DHT22;1020;48.854;8.830;2023-07-31T16:00:55;22.20;99.90
2030;DHT22;1020;48.854;8.830;2023-07-31T16:03:23;22.20;99.90
2030;DHT22;1020;48.854;8.830;2023-07-31T16:05:50;22.10;99.90
2030;DHT22;1020;48.854;8.830;2023-07-31T16:08:16;22.00;99.90
2030;DHT22;1020;48.854;8.830;2023-07-31T16:10:43;22.00;99.90
2030;DHT22;1020;48.854;8.830;2023-07-31T16:13:10;22.10;99.90
2030;DHT22;1020;48.854;8.830;2023-07-31T16:15:37;22.00;99.90